createdAt,value
2022-12-29T01:38:22.706Z,508.00
2022-12-29T01:39:22.680Z,505.00
2022-12-29T01:40:22.649Z,503.00
2022-12-29T01:41:22.639Z,505.00
2022-12-29T01:42:22.641Z,502.00
2022-12-29T01:43:22.567Z,504.00
2022-12-29T01:44:22.545Z,507.00
2022-12-29T01:45:22.518Z,509.00
2022-12-29T01:46:22.511Z,509.00
2022-12-29T01:47:22.473Z,506.00
2022-12-29T01:48:22.453Z,506.00
2022-12-29T01:49:22.870Z,502.00
2022-12-29T01:50:22.407Z,505.00
2022-12-29T01:51:22.401Z,506.00
2022-12-29T01:52:22.354Z,502.00
2022-12-29T01:53:22.317Z,503.00
2022-12-29T01:54:22.292Z,508.00
2022-12-29T01:55:22.293Z,502.00
2022-12-29T01:56:22.237Z,509.00
2022-12-29T01:57:22.219Z,508.00
2022-12-29T01:58:22.194Z,506.00
2022-12-29T01:59:22.180Z,506.00
2022-12-29T02:00:22.859Z,506.00
2022-12-29T02:01:22.349Z,506.00
2022-12-29T02:02:22.166Z,504.00
2022-12-29T02:03:22.097Z,508.00
2022-12-29T02:04:22.041Z,503.00
2022-12-29T02:05:22.052Z,505.00
2022-12-29T02:06:22.004Z,505.00
2022-12-29T02:07:21.968Z,507.00
2022-12-29T02:08:21.945Z,503.00
2022-12-29T02:09:21.923Z,505.00
2022-12-29T02:10:21.892Z,505.00
2022-12-29T02:11:21.861Z,503.00
2022-12-29T02:12:21.844Z,502.00
2022-12-29T02:13:21.835Z,500.00
2022-12-29T02:14:21.798Z,504.00
2022-12-29T02:15:21.768Z,506.00
2022-12-29T02:16:21.792Z,505.00
2022-12-29T02:17:21.719Z,502.00
2022-12-29T02:18:21.703Z,506.00
2022-12-29T02:19:21.694Z,506.00
2022-12-29T02:20:21.652Z,507.00
2022-12-29T02:21:21.702Z,507.00
2022-12-29T02:22:21.611Z,501.00
2022-12-29T02:23:21.602Z,511.00
2022-12-29T02:24:21.628Z,506.00
2022-12-29T02:25:21.565Z,507.00
2022-12-29T02:26:21.541Z,505.00
2022-12-29T02:27:21.511Z,509.00
2022-12-29T02:28:21.501Z,503.00
2022-12-29T02:29:21.494Z,505.00
2022-12-29T02:30:21.476Z,506.00
2022-12-29T02:31:21.513Z,508.00
2022-12-29T02:32:21.451Z,501.00
2022-12-29T02:33:21.433Z,508.00
2022-12-29T02:34:21.388Z,511.00
2022-12-29T02:35:21.387Z,503.00
2022-12-29T02:36:21.344Z,512.00
2022-12-29T02:37:21.352Z,505.00
2022-12-29T02:38:21.306Z,515.00
2022-12-29T02:39:21.278Z,507.00
2022-12-29T02:40:21.265Z,503.00
2022-12-29T02:41:21.235Z,508.00
2022-12-29T02:42:21.229Z,509.00
2022-12-29T02:43:21.195Z,501.00
2022-12-29T02:44:21.182Z,508.00
2022-12-29T02:45:21.171Z,504.00
2022-12-29T02:46:21.164Z,505.00
2022-12-29T02:47:21.120Z,503.00
2022-12-29T02:48:21.086Z,502.00
2022-12-29T02:49:21.060Z,502.00
2022-12-29T04:23:21.908Z,508.00
2022-12-29T09:15:13.077Z,507.00
2022-12-29T09:16:13.124Z,509.00
2022-12-29T09:17:13.015Z,514.00
2022-12-29T09:18:19.032Z,506.00
2022-12-29T09:19:13.962Z,506.00
2022-12-29T09:20:12.957Z,506.00
2022-12-29T09:21:12.930Z,507.00
2022-12-29T09:22:12.909Z,506.00
2022-12-29T09:23:12.896Z,502.00
2022-12-29T09:24:12.882Z,503.00
2022-12-29T09:25:12.838Z,500.00
2022-12-29T09:26:12.818Z,501.00
2022-12-29T09:27:12.823Z,503.00
2022-12-29T09:28:12.812Z,508.00
2022-12-29T09:29:12.754Z,504.00
2022-12-29T09:30:12.733Z,503.00
2022-12-29T09:31:12.749Z,502.00
2022-12-29T09:32:18.137Z,502.00
2022-12-29T09:33:13.717Z,502.00
2022-12-29T09:34:12.631Z,503.00
2022-12-29T09:35:12.631Z,504.00
2022-12-29T09:36:12.593Z,502.00
2022-12-29T09:37:12.583Z,502.00
2022-12-29T09:38:12.560Z,505.00
2022-12-29T09:39:12.529Z,502.00
2022-12-29T09:40:12.526Z,508.00
2022-12-29T09:41:12.533Z,502.00
2022-12-29T09:42:12.490Z,500.00
2022-12-29T09:43:12.437Z,501.00
2022-12-29T09:44:12.443Z,502.00
2022-12-29T09:45:12.411Z,506.00
2022-12-29T09:46:12.474Z,502.00
2022-12-29T09:47:12.379Z,502.00
2022-12-29T09:49:12.307Z,503.00
2022-12-29T09:50:12.273Z,501.00
2022-12-29T09:51:12.262Z,502.00
2022-12-29T09:52:12.265Z,502.00
2022-12-29T09:53:12.233Z,502.00
2022-12-29T09:54:12.205Z,502.00
2022-12-29T09:55:14.250Z,506.00
2022-12-29T09:56:12.148Z,501.00
2022-12-29T09:57:12.123Z,501.00
2022-12-29T09:58:12.118Z,501.00
2022-12-29T09:59:12.079Z,503.00
2022-12-29T10:00:12.078Z,505.00
2022-12-29T10:01:12.073Z,510.00
2022-12-29T10:02:12.167Z,515.00
2022-12-29T10:03:12.084Z,511.00
2022-12-29T10:04:11.957Z,511.00
2022-12-29T10:05:11.960Z,514.00
2022-12-29T10:06:11.929Z,513.00
2022-12-29T10:07:29.288Z,512.00
2022-12-29T10:08:17.249Z,512.00
2022-12-29T10:09:11.836Z,513.00
2022-12-29T10:10:11.880Z,513.00
2022-12-29T10:11:11.817Z,512.00
2022-12-29T10:12:11.829Z,513.00
2022-12-29T10:13:12.573Z,513.00
2022-12-29T10:14:15.767Z,516.00
2022-12-29T10:15:11.688Z,516.00
2022-12-29T10:16:11.721Z,516.00
2022-12-29T10:17:11.639Z,513.00
2022-12-29T10:18:11.614Z,512.00
2022-12-29T10:19:11.638Z,515.00
2022-12-29T10:20:11.588Z,514.00
2022-12-29T10:21:11.549Z,514.00
2022-12-29T10:22:11.583Z,515.00
2022-12-29T10:23:11.533Z,514.00
2022-12-29T10:24:11.473Z,515.00
2022-12-29T10:25:11.440Z,515.00
2022-12-29T10:26:11.412Z,516.00
2022-12-29T10:27:11.384Z,516.00
2022-12-29T10:28:11.392Z,514.00
2022-12-29T10:29:11.343Z,511.00
2022-12-29T10:30:11.310Z,510.00
2022-12-29T10:31:11.398Z,514.00
2022-12-29T10:32:11.328Z,511.00
2022-12-29T10:33:11.256Z,512.00
2022-12-29T10:34:11.225Z,514.00
2022-12-29T10:35:13.154Z,516.00
2022-12-29T10:36:11.168Z,516.00
2022-12-29T10:37:11.167Z,514.00
2022-12-29T10:38:11.132Z,515.00
2022-12-29T10:39:11.064Z,515.00
2022-12-29T10:40:11.055Z,516.00
2022-12-29T11:19:11.065Z,512.00
2022-12-29T11:20:11.077Z,513.00
2022-12-29T11:21:11.114Z,513.00
2022-12-29T11:22:11.166Z,512.00
2022-12-29T11:23:11.176Z,513.00
2022-12-29T11:24:11.206Z,512.00
2022-12-29T11:25:11.284Z,510.00
2022-12-29T11:26:11.328Z,511.00
2022-12-29T11:27:11.359Z,512.00
2022-12-29T11:28:11.372Z,510.00
2022-12-29T11:29:11.398Z,511.00
2022-12-29T11:30:11.416Z,511.00
2022-12-29T11:31:11.464Z,508.00
2022-12-29T11:32:11.588Z,509.00
2022-12-29T11:33:11.559Z,511.00
2022-12-29T11:34:11.583Z,512.00
2022-12-29T11:35:11.623Z,510.00
2022-12-29T11:36:11.664Z,509.00
2022-12-29T11:37:11.689Z,511.00
2022-12-29T11:38:11.707Z,509.00
2022-12-29T11:39:13.968Z,507.00
2022-12-29T11:40:11.786Z,509.00
2022-12-29T11:41:11.753Z,509.00
2022-12-29T11:42:11.761Z,509.00
2022-12-29T11:43:11.707Z,508.00
2022-12-29T11:44:11.685Z,509.00
2022-12-29T11:45:11.656Z,508.00
2022-12-29T11:46:11.682Z,509.00
2022-12-29T11:47:11.644Z,510.00
2022-12-29T11:48:11.706Z,509.00
2022-12-29T11:49:11.743Z,511.00
2022-12-29T11:50:11.745Z,508.00
2022-12-29T11:51:11.789Z,507.00
2022-12-29T11:52:11.829Z,508.00
2022-12-29T11:53:11.866Z,508.00
2022-12-29T11:54:11.886Z,508.00
2022-12-29T11:55:11.887Z,509.00
2022-12-29T11:56:11.967Z,507.00
2022-12-29T11:57:11.974Z,508.00
2022-12-29T11:58:11.997Z,509.00
2022-12-29T11:59:12.020Z,507.00
2022-12-29T12:00:12.052Z,507.00
2022-12-29T12:01:13.052Z,505.00
2022-12-29T12:02:12.255Z,506.00
2022-12-29T12:03:12.156Z,505.00
2022-12-29T12:04:12.091Z,505.00
2022-12-29T12:05:12.075Z,503.00
2022-12-29T12:06:12.051Z,507.00
2022-12-29T12:07:12.088Z,503.00
2022-12-29T12:08:16.153Z,504.00
2022-12-29T12:10:12.038Z,504.00
2022-12-29T12:11:12.049Z,504.00
2022-12-29T12:12:11.968Z,504.00
2022-12-29T12:13:11.964Z,504.00
2022-12-29T12:14:11.935Z,501.00
2022-12-29T12:15:11.900Z,501.00
2022-12-29T12:16:11.932Z,500.00
2022-12-29T12:18:11.830Z,502.00
2022-12-29T12:19:11.818Z,502.00
2022-12-29T12:20:11.780Z,502.00
2022-12-29T12:21:11.825Z,501.00
2022-12-29T12:22:11.768Z,500.00
2022-12-29T12:23:11.873Z,500.00
2022-12-29T12:24:11.764Z,502.00
2022-12-29T12:25:11.672Z,501.00
2022-12-29T12:26:11.639Z,504.00
2022-12-29T12:27:11.609Z,502.00
2022-12-29T12:28:11.623Z,504.00
2022-12-29T12:30:11.532Z,512.00
2022-12-29T12:31:11.627Z,509.00
2022-12-29T12:36:11.389Z,509.00
2022-12-29T12:40:11.312Z,505.00
2022-12-29T12:41:14.386Z,506.00
2022-12-29T12:42:12.252Z,507.00
2022-12-29T12:43:11.239Z,507.00
2022-12-29T12:44:11.206Z,507.00
2022-12-29T12:45:11.215Z,507.00
2022-12-29T12:46:11.204Z,507.00
2022-12-29T12:47:11.171Z,506.00
2022-12-29T12:48:11.129Z,506.00
2022-12-29T12:49:11.106Z,507.00
2022-12-29T12:50:11.193Z,502.00
2022-12-29T17:00:04.814Z,511.00
2022-12-29T17:01:04.803Z,512.00
2022-12-29T17:02:04.999Z,507.00
2022-12-29T17:03:04.833Z,508.00
2022-12-29T17:04:04.634Z,509.00
2022-12-29T17:05:04.613Z,511.00
2022-12-29T17:06:04.590Z,515.00
2022-12-29T17:07:04.565Z,512.00
2022-12-29T17:08:04.540Z,507.00
2022-12-29T17:09:04.528Z,511.00
2022-12-29T17:10:04.503Z,513.00
2022-12-29T17:11:04.464Z,514.00
2022-12-29T17:12:11.176Z,514.00
2022-12-29T17:13:05.416Z,514.00
2022-12-29T17:14:04.400Z,514.00
2022-12-29T17:15:04.366Z,514.00
2022-12-29T17:16:04.382Z,518.00
2022-12-29T17:17:04.337Z,519.00
2022-12-29T17:18:07.535Z,514.00
2022-12-29T17:19:05.321Z,514.00
2022-12-29T17:20:04.280Z,515.00
2022-12-29T17:21:04.231Z,516.00
2022-12-29T17:22:04.214Z,516.00
2022-12-29T17:23:04.209Z,515.00
2022-12-29T17:24:04.296Z,519.00
2022-12-29T17:25:04.143Z,517.00
2022-12-29T17:26:04.226Z,518.00
2022-12-29T17:27:04.167Z,520.00
2022-12-29T17:28:04.136Z,521.00
2022-12-29T17:29:04.084Z,521.00
2022-12-29T17:30:04.065Z,519.00
2022-12-29T17:31:04.139Z,518.00
2022-12-29T17:32:04.015Z,519.00
2022-12-29T17:33:04.003Z,519.00
2022-12-29T17:34:03.960Z,518.00
2022-12-29T17:35:03.959Z,516.00
2022-12-29T17:36:03.920Z,522.00
2022-12-29T17:37:03.916Z,522.00
2022-12-29T17:38:03.885Z,523.00
2022-12-29T17:39:03.863Z,522.00
2022-12-29T17:40:03.832Z,526.00
2022-12-29T17:41:03.849Z,525.00
2022-12-29T17:42:03.802Z,524.00
2022-12-29T17:43:03.792Z,519.00
2022-12-29T17:44:03.767Z,525.00
2022-12-29T17:45:03.728Z,521.00
2022-12-29T17:46:03.777Z,525.00
2022-12-29T17:47:03.692Z,525.00
2022-12-29T17:48:03.664Z,523.00
2022-12-29T17:49:03.638Z,528.00
2022-12-29T17:50:03.645Z,530.00
2022-12-29T17:51:03.607Z,528.00
2022-12-29T17:52:03.594Z,532.00
2022-12-29T17:53:03.567Z,535.00
2022-12-29T17:54:03.554Z,526.00
2022-12-29T17:55:03.539Z,530.00
2022-12-29T17:56:03.513Z,525.00
2022-12-29T17:57:03.475Z,533.00
2022-12-29T17:58:04.196Z,533.00
2022-12-29T17:59:03.454Z,532.00
2022-12-29T18:00:03.419Z,532.00
2022-12-29T18:01:03.431Z,532.00
2022-12-29T18:02:03.542Z,534.00
2022-12-29T18:03:03.485Z,538.00
2022-12-29T18:04:03.380Z,537.00
2022-12-29T18:05:03.345Z,540.00
2022-12-29T18:06:03.307Z,539.00
2022-12-29T18:07:03.292Z,537.00
2022-12-29T18:08:03.262Z,540.00
2022-12-29T18:09:03.248Z,541.00
2022-12-29T18:10:03.243Z,536.00
2022-12-29T18:11:03.227Z,539.00
2022-12-29T18:12:03.190Z,538.00
2022-12-29T18:13:03.170Z,537.00
2022-12-29T18:14:03.157Z,543.00
2022-12-29T18:15:03.138Z,547.00
2022-12-29T18:16:03.156Z,548.00
2022-12-29T18:17:03.110Z,543.00
2022-12-29T18:18:03.080Z,547.00
2022-12-29T18:19:03.027Z,543.00
2022-12-29T18:20:03.018Z,546.00
2022-12-29T18:21:02.992Z,549.00
2022-12-29T18:22:02.986Z,552.00
2022-12-29T18:23:02.973Z,552.00
2022-12-29T18:24:02.947Z,549.00
2022-12-29T18:25:02.946Z,553.00
2022-12-29T18:26:02.894Z,553.00
2022-12-29T18:28:02.877Z,555.00
2022-12-29T18:29:02.878Z,555.00
2022-12-29T18:30:02.850Z,558.00
2022-12-29T18:31:02.868Z,553.00
2022-12-29T18:32:02.818Z,556.00
2022-12-29T18:33:02.786Z,558.00
2022-12-29T18:34:02.784Z,557.00
2022-12-29T18:35:02.789Z,561.00
2022-12-29T18:36:02.787Z,560.00
2022-12-29T18:37:02.778Z,558.00
2022-12-29T18:38:02.779Z,560.00
2022-12-29T18:39:02.743Z,563.00
2022-12-29T18:40:02.712Z,560.00
2022-12-29T18:41:02.685Z,560.00
2022-12-29T18:42:02.671Z,560.00
2022-12-29T18:43:02.642Z,563.00
2022-12-29T18:44:02.653Z,564.00
2022-12-29T18:45:02.608Z,565.00
2022-12-29T18:46:02.577Z,567.00
2022-12-29T18:47:02.602Z,570.00
2022-12-29T18:48:02.545Z,569.00
2022-12-29T18:49:02.536Z,567.00
2022-12-29T18:50:02.507Z,571.00
2022-12-29T18:51:02.506Z,567.00
2022-12-29T18:52:02.452Z,571.00
2022-12-29T18:53:04.247Z,574.00
2022-12-29T18:54:02.408Z,570.00
2022-12-29T18:55:02.407Z,573.00
2022-12-29T18:56:02.403Z,569.00
2022-12-29T18:57:02.324Z,569.00
2022-12-29T18:58:02.314Z,575.00
2022-12-29T18:59:02.274Z,574.00
2022-12-29T19:00:02.271Z,573.00
2022-12-29T19:01:02.256Z,573.00
2022-12-29T19:02:02.225Z,571.00
2022-12-29T19:03:02.233Z,576.00
2022-12-29T19:04:02.202Z,570.00
2022-12-29T19:05:07.073Z,573.00
2022-12-29T19:07:02.170Z,574.00
2022-12-29T19:08:02.077Z,576.00
2022-12-29T19:09:02.066Z,578.00
2022-12-29T19:10:02.062Z,581.00
2022-12-29T19:11:02.037Z,577.00
2022-12-29T19:12:02.034Z,579.00
2022-12-29T19:13:01.980Z,579.00
2022-12-29T19:14:01.956Z,579.00
2022-12-29T19:15:01.932Z,583.00
2022-12-29T19:16:01.990Z,584.00
2022-12-29T19:17:01.903Z,582.00
2022-12-29T19:18:41.959Z,582.00
2022-12-29T19:20:01.848Z,582.00
2022-12-29T19:21:01.798Z,583.00
2022-12-29T19:22:01.761Z,584.00
2022-12-29T19:34:01.530Z,587.00
2022-12-29T19:46:01.817Z,593.00
2022-12-29T19:47:01.848Z,594.00
2022-12-29T19:48:01.859Z,589.00
2022-12-29T19:49:01.865Z,592.00
2022-12-29T19:50:01.900Z,592.00
2022-12-29T19:51:01.968Z,591.00
2022-12-29T19:52:01.988Z,591.00
2022-12-29T19:53:05.332Z,595.00
2022-12-29T19:54:01.964Z,599.00
2022-12-29T19:55:01.941Z,596.00
2022-12-29T19:56:01.906Z,593.00
2022-12-29T19:57:01.896Z,594.00
2022-12-29T19:58:01.855Z,592.00
2022-12-29T19:59:01.827Z,591.00
2022-12-29T20:00:01.790Z,593.00
2022-12-29T20:01:01.863Z,595.00
2022-12-29T20:02:01.869Z,592.00
2022-12-29T20:03:01.938Z,592.00
2022-12-29T20:04:01.688Z,596.00
2022-12-29T20:05:01.695Z,599.00
2022-12-29T20:06:01.631Z,594.00
2022-12-29T20:07:01.601Z,596.00
2022-12-29T20:08:01.571Z,593.00
2022-12-29T20:09:01.556Z,590.00
2022-12-29T20:10:01.547Z,595.00
2022-12-29T20:11:01.500Z,598.00
2022-12-29T20:12:01.476Z,594.00
2022-12-29T20:13:01.466Z,596.00
2022-12-29T20:14:01.431Z,593.00
2022-12-29T20:15:01.407Z,598.00
2022-12-29T20:16:01.457Z,596.00
2022-12-29T20:17:11.299Z,596.00
2022-12-29T20:18:12.934Z,596.00
2022-12-29T20:19:02.295Z,596.00
2022-12-29T20:20:01.247Z,598.00
2022-12-29T20:21:01.221Z,596.00
2022-12-29T20:22:01.213Z,597.00
2022-12-29T20:23:01.178Z,597.00
2022-12-29T20:24:01.156Z,598.00
2022-12-29T20:25:34.742Z,596.00
2022-12-29T20:26:02.101Z,596.00
2022-12-29T20:27:01.079Z,596.00
2022-12-29T20:28:01.057Z,598.00
2022-12-29T20:39:01.723Z,601.00
2022-12-29T21:23:01.295Z,600.00
2022-12-29T21:24:01.110Z,602.00
2022-12-29T21:25:01.181Z,605.00
2022-12-29T21:26:01.185Z,599.00
2022-12-29T21:27:01.202Z,602.00
2022-12-29T21:28:01.265Z,602.00
2022-12-29T21:29:01.282Z,598.00
2022-12-29T21:30:01.334Z,603.00
2022-12-29T21:31:01.417Z,601.00
2022-12-29T21:32:05.986Z,603.00
2022-12-29T21:33:02.359Z,603.00
2022-12-29T21:34:01.307Z,603.00
2022-12-29T21:35:01.277Z,602.00
2022-12-29T21:36:01.262Z,603.00
2022-12-29T21:37:01.235Z,602.00
2022-12-29T21:38:01.209Z,602.00
2022-12-29T21:39:01.192Z,604.00
2022-12-29T21:40:01.143Z,604.00
2022-12-29T21:41:01.140Z,597.00
2022-12-29T21:42:01.106Z,603.00
2022-12-29T21:43:01.078Z,604.00
2022-12-29T21:49:01.779Z,604.00
